sensor_id;sensor_type;location;lat;lon;timestamp;P1;durP1;ratioP1;P2;durP2;ratioP2
3543;SDS011;1786;52.870;9.578;2023-01-06T00:00:27;31.70;;;10.30;;
3543;SDS011;1786;52.870;9.578;2023-01-06T00:02:53;30.97;;;11.40;;
3543;SDS011;1786;52.870;9.578;2023-01-06T00:05:20;38.53;;;11.70;;
3543;SDS011;1786;52.870;9.578;2023-01-06T00:07:48;35.43;;;11.40;;
3543;SDS011;1786;52.870;9.578;2023-01-06T00:10:15;47.40;;;12.10;;
3543;SDS011;1786;52.870;9.578;2023-01-06T00:12:45;39.43;;;13.53;;
3543;SDS011;1786;52.870;9.578;2023-01-06T00:15:13;43.27;;;12.37;;
3543;SDS011;1786;52.870;9.578;2023-01-06T00:17:41;36.13;;;13.67;;
3543;SDS011;1786;52.870;9.578;2023-01-06T00:20:08;27.93;;;12.03;;
3543;SDS011;1786;52.870;9.578;2023-01-06T00:22:37;41.57;;;13.40;;
3543;SDS011;1786;52.870;9.578;2023-01-06T00:25:05;48.10;;;14.13;;
3543;SDS011;1786;52.870;9.578;2023-01-06T00:27:32;42.33;;;12.10;;
3543;SDS011;1786;52.870;9.578;2023-01-06T00:29:59;43.97;;;14.00;;
3543;SDS011;1786;52.870;9.578;2023-01-06T00:32:25;31.13;;;12.47;;
3543;SDS011;1786;52.870;9.578;2023-01-06T00:34:52;50.67;;;13.23;;
3543;SDS011;1786;52.870;9.578;2023-01-06T00:37:18;43.30;;;13.43;;
3543;SDS011;1786;52.870;9.578;2023-01-06T00:39:45;34.67;;;12.23;;
3543;SDS011;1786;52.870;9.578;2023-01-06T00:42:12;33.83;;;12.53;;
3543;SDS011;1786;52.870;9.578;2023-01-06T00:44:38;30.27;;;12.43;;
3543;SDS011;1786;52.870;9.578;2023-01-06T00:47:06;41.23;;;12.47;;
3543;SDS011;1786;52.870;9.578;2023-01-06T00:49:35;24.47;;;12.10;;
3543;SDS011;1786;52.870;9.578;2023-01-06T00:52:04;36.17;;;12.90;;
3543;SDS011;1786;52.870;9.578;2023-01-06T00:54:30;30.93;;;11.70;;
3543;SDS011;1786;52.870;9.578;2023-01-06T00:56:57;33.63;;;11.70;;
3543;SDS011;1786;52.870;9.578;2023-01-06T00:59:24;35.03;;;11.67;;
3543;SDS011;1786;52.870;9.578;2023-01-06T01:01:53;35.80;;;11.37;;
3543;SDS011;1786;52.870;9.578;2023-01-06T01:04:22;33.57;;;11.60;;
3543;SDS011;1786;52.870;9.578;2023-01-06T01:06:50;31.60;;;11.00;;
3543;SDS011;1786;52.870;9.578;2023-01-06T01:09:26;39.30;;;13.10;;
3543;SDS011;1786;52.870;9.578;2023-01-06T01:11:54;36.50;;;12.27;;
3543;SDS011;1786;52.870;9.578;2023-01-06T01:14:50;39.80;;;12.80;;
3543;SDS011;1786;52.870;9.578;2023-01-06T01:17:19;36.77;;;13.03;;
3543;SDS011;1786;52.870;9.578;2023-01-06T01:19:48;35.47;;;13.43;;
3543;SDS011;1786;52.870;9.578;2023-01-06T01:22:16;30.27;;;12.17;;
3543;SDS011;1786;52.870;9.578;2023-01-06T01:24:43;30.93;;;11.60;;
3543;SDS011;1786;52.870;9.578;2023-01-06T01:27:09;34.10;;;12.47;;
3543;SDS011;1786;52.870;9.578;2023-01-06T01:29:36;31.47;;;11.57;;
3543;SDS011;1786;52.870;9.578;2023-01-06T01:32:03;37.47;;;13.53;;
3543;SDS011;1786;52.870;9.578;2023-01-06T01:34:29;36.53;;;11.70;;
3543;SDS011;1786;52.870;9.578;2023-01-06T01:36:56;23.53;;;11.73;;
3543;SDS011;1786;52.870;9.578;2023-01-06T01:39:25;31.30;;;12.10;;
3543;SDS011;1786;52.870;9.578;2023-01-06T01:41:54;27.50;;;12.13;;
3543;SDS011;1786;52.870;9.578;2023-01-06T01:49:53;20.73;;;11.13;;
3543;SDS011;1786;52.870;9.578;2023-01-06T01:52:25;29.77;;;10.87;;
3543;SDS011;1786;52.870;9.578;2023-01-06T01:54:53;25.47;;;11.60;;
3543;SDS011;1786;52.870;9.578;2023-01-06T01:57:23;27.60;;;11.77;;
3543;SDS011;1786;52.870;9.578;2023-01-06T01:59:55;33.60;;;12.73;;
3543;SDS011;1786;52.870;9.578;2023-01-06T02:02:23;24.33;;;10.10;;
3543;SDS011;1786;52.870;9.578;2023-01-06T02:04:54;21.20;;;12.10;;
3543;SDS011;1786;52.870;9.578;2023-01-06T02:07:22;22.10;;;11.70;;
3543;SDS011;1786;52.870;9.578;2023-01-06T02:12:45;24.53;;;12.63;;
3543;SDS011;1786;52.870;9.578;2023-01-06T02:15:25;27.93;;;12.20;;
3543;SDS011;1786;52.870;9.578;2023-01-06T02:18:09;35.43;;;12.90;;
3543;SDS011;1786;52.870;9.578;2023-01-06T02:32:19;23.73;;;11.23;;
3543;SDS011;1786;52.870;9.578;2023-01-06T02:35:05;30.30;;;12.00;;
3543;SDS011;1786;52.870;9.578;2023-01-06T02:37:47;22.77;;;12.50;;
3543;SDS011;1786;52.870;9.578;2023-01-06T02:40:29;28.47;;;12.30;;
3543;SDS011;1786;52.870;9.578;2023-01-06T02:53:41;43.90;;;11.53;;
3543;SDS011;1786;52.870;9.578;2023-01-06T02:56:20;19.10;;;10.77;;
3543;SDS011;1786;52.870;9.578;2023-01-06T03:01:24;17.00;;;10.70;;
3543;SDS011;1786;52.870;9.578;2023-01-06T03:03:56;21.13;;;11.67;;
3543;SDS011;1786;52.870;9.578;2023-01-06T03:06:28;27.20;;;11.30;;
3543;SDS011;1786;52.870;9.578;2023-01-06T03:08:58;18.77;;;10.50;;
3543;SDS011;1786;52.870;9.578;2023-01-06T03:11:30;27.57;;;11.60;;
3543;SDS011;1786;52.870;9.578;2023-01-06T03:16:32;21.10;;;10.47;;
3543;SDS011;1786;52.870;9.578;2023-01-06T03:18:59;20.03;;;12.47;;
3543;SDS011;1786;52.870;9.578;2023-01-06T03:21:29;18.70;;;10.67;;
3543;SDS011;1786;52.870;9.578;2023-01-06T03:23:59;20.07;;;8.87;;
3543;SDS011;1786;52.870;9.578;2023-01-06T03:26:26;17.43;;;10.20;;
3543;SDS011;1786;52.870;9.578;2023-01-06T03:28:53;19.70;;;11.20;;
3543;SDS011;1786;52.870;9.578;2023-01-06T03:31:29;18.57;;;9.67;;
3543;SDS011;1786;52.870;9.578;2023-01-06T03:34:16;20.87;;;10.37;;
3543;SDS011;1786;52.870;9.578;2023-01-06T03:39:42;13.77;;;8.80;;
3543;SDS011;1786;52.870;9.578;2023-01-06T03:42:27;13.77;;;9.87;;
3543;SDS011;1786;52.870;9.578;2023-01-06T03:48:19;16.07;;;10.17;;
3543;SDS011;1786;52.870;9.578;2023-01-06T03:51:01;16.80;;;9.30;;
3543;SDS011;1786;52.870;9.578;2023-01-06T03:53:40;17.23;;;9.70;;
3543;SDS011;1786;52.870;9.578;2023-01-06T03:56:21;18.33;;;9.37;;
3543;SDS011;1786;52.870;9.578;2023-01-06T03:58:53;16.33;;;9.40;;
3543;SDS011;1786;52.870;9.578;2023-01-06T04:01:23;14.20;;;10.17;;
3543;SDS011;1786;52.870;9.578;2023-01-06T04:03:52;13.90;;;8.97;;
3543;SDS011;1786;52.870;9.578;2023-01-06T04:06:23;13.30;;;7.87;;
3543;SDS011;1786;52.870;9.578;2023-01-06T04:08:50;11.00;;;7.90;;
3543;SDS011;1786;52.870;9.578;2023-01-06T04:11:18;10.80;;;8.03;;
3543;SDS011;1786;52.870;9.578;2023-01-06T04:14:03;12.73;;;8.57;;
3543;SDS011;1786;52.870;9.578;2023-01-06T04:16:31;14.23;;;8.90;;
3543;SDS011;1786;52.870;9.578;2023-01-06T04:18:58;14.50;;;8.40;;
3543;SDS011;1786;52.870;9.578;2023-01-06T04:21:25;15.13;;;8.20;;
3543;SDS011;1786;52.870;9.578;2023-01-06T04:23:51;10.10;;;7.30;;
3543;SDS011;1786;52.870;9.578;2023-01-06T04:26:18;8.20;;;7.40;;
3543;SDS011;1786;52.870;9.578;2023-01-06T04:28:49;13.23;;;9.07;;
3543;SDS011;1786;52.870;9.578;2023-01-06T04:31:16;15.27;;;8.23;;
3543;SDS011;1786;52.870;9.578;2023-01-06T04:33:44;10.37;;;7.50;;
3543;SDS011;1786;52.870;9.578;2023-01-06T04:36:11;11.13;;;8.43;;
3543;SDS011;1786;52.870;9.578;2023-01-06T04:38:41;11.70;;;8.47;;
3543;SDS011;1786;52.870;9.578;2023-01-06T04:41:08;15.17;;;9.23;;
3543;SDS011;1786;52.870;9.578;2023-01-06T04:43:34;11.13;;;8.63;;
3543;SDS011;1786;52.870;9.578;2023-01-06T04:46:01;11.53;;;8.67;;
3543;SDS011;1786;52.870;9.578;2023-01-06T04:48:28;12.17;;;8.90;;
3543;SDS011;1786;52.870;9.578;2023-01-06T04:51:05;16.20;;;8.43;;
3543;SDS011;1786;52.870;9.578;2023-01-06T04:53:33;13.87;;;8.50;;
3543;SDS011;1786;52.870;9.578;2023-01-06T04:56:02;22.63;;;8.93;;
3543;SDS011;1786;52.870;9.578;2023-01-06T04:58:30;12.00;;;8.97;;
3543;SDS011;1786;52.870;9.578;2023-01-06T05:00:58;11.50;;;8.50;;
3543;SDS011;1786;52.870;9.578;2023-01-06T05:03:29;18.83;;;10.43;;
3543;SDS011;1786;52.870;9.578;2023-01-06T05:05:58;17.37;;;9.73;;
3543;SDS011;1786;52.870;9.578;2023-01-06T05:08:27;14.93;;;9.00;;
3543;SDS011;1786;52.870;9.578;2023-01-06T05:10:59;11.60;;;9.43;;
3543;SDS011;1786;52.870;9.578;2023-01-06T05:13:27;13.07;;;9.10;;
3543;SDS011;1786;52.870;9.578;2023-01-06T05:15:55;9.83;;;8.80;;
3543;SDS011;1786;52.870;9.578;2023-01-06T05:18:21;15.60;;;10.57;;
3543;SDS011;1786;52.870;9.578;2023-01-06T05:20:52;14.77;;;9.97;;
3543;SDS011;1786;52.870;9.578;2023-01-06T05:23:19;16.80;;;10.00;;
3543;SDS011;1786;52.870;9.578;2023-01-06T05:25:48;15.03;;;10.90;;
3543;SDS011;1786;52.870;9.578;2023-01-06T05:28:16;13.03;;;10.03;;
3543;SDS011;1786;52.870;9.578;2023-01-06T05:30:43;16.97;;;10.07;;
3543;SDS011;1786;52.870;9.578;2023-01-06T05:33:09;13.53;;;9.30;;
3543;SDS011;1786;52.870;9.578;2023-01-06T05:35:36;14.80;;;10.73;;
3543;SDS011;1786;52.870;9.578;2023-01-06T05:38:03;16.00;;;9.90;;
3543;SDS011;1786;52.870;9.578;2023-01-06T05:40:30;11.80;;;10.50;;
3543;SDS011;1786;52.870;9.578;2023-01-06T05:42:56;16.53;;;12.53;;
3543;SDS011;1786;52.870;9.578;2023-01-06T05:45:24;14.60;;;10.80;;
3543;SDS011;1786;52.870;9.578;2023-01-06T05:47:51;13.93;;;11.63;;
3543;SDS011;1786;52.870;9.578;2023-01-06T05:50:18;15.77;;;12.30;;
3543;SDS011;1786;52.870;9.578;2023-01-06T05:52:44;18.83;;;13.07;;
3543;SDS011;1786;52.870;9.578;2023-01-06T05:55:11;16.40;;;13.60;;
3543;SDS011;1786;52.870;9.578;2023-01-06T05:57:38;16.33;;;12.57;;
3543;SDS011;1786;52.870;9.578;2023-01-06T06:00:04;18.80;;;11.27;;
3543;SDS011;1786;52.870;9.578;2023-01-06T06:02:37;19.90;;;13.60;;
3543;SDS011;1786;52.870;9.578;2023-01-06T06:05:04;18.10;;;12.37;;
3543;SDS011;1786;52.870;9.578;2023-01-06T06:07:30;17.03;;;12.20;;
3543;SDS011;1786;52.870;9.578;2023-01-06T06:09:57;14.73;;;11.23;;
3543;SDS011;1786;52.870;9.578;2023-01-06T06:12:24;14.13;;;10.80;;
3543;SDS011;1786;52.870;9.578;2023-01-06T06:14:51;16.30;;;11.23;;
3543;SDS011;1786;52.870;9.578;2023-01-06T06:17:17;12.07;;;10.30;;
3543;SDS011;1786;52.870;9.578;2023-01-06T06:19:44;12.87;;;10.63;;
3543;SDS011;1786;52.870;9.578;2023-01-06T06:22:10;14.07;;;9.97;;
3543;SDS011;1786;52.870;9.578;2023-01-06T06:24:37;15.97;;;10.00;;
3543;SDS011;1786;52.870;9.578;2023-01-06T06:27:04;11.87;;;10.30;;
3543;SDS011;1786;52.870;9.578;2023-01-06T06:29:31;17.63;;;10.13;;
3543;SDS011;1786;52.870;9.578;2023-01-06T06:31:58;11.00;;;9.93;;
3543;SDS011;1786;52.870;9.578;2023-01-06T06:34:24;13.37;;;9.40;;
3543;SDS011;1786;52.870;9.578;2023-01-06T06:36:51;10.60;;;9.10;;
3543;SDS011;1786;52.870;9.578;2023-01-06T06:39:18;10.20;;;8.87;;
3543;SDS011;1786;52.870;9.578;2023-01-06T06:41:45;10.30;;;7.83;;
3543;SDS011;1786;52.870;9.578;2023-01-06T06:44:12;9.33;;;7.83;;
3543;SDS011;1786;52.870;9.578;2023-01-06T06:46:38;8.57;;;7.77;;
3543;SDS011;1786;52.870;9.578;2023-01-06T06:49:05;9.03;;;7.80;;
3543;SDS011;1786;52.870;9.578;2023-01-06T06:51:31;8.47;;;7.67;;
3543;SDS011;1786;52.870;9.578;2023-01-06T06:53:58;8.67;;;7.10;;
3543;SDS011;1786;52.870;9.578;2023-01-06T06:56:25;8.00;;;7.30;;
3543;SDS011;1786;52.870;9.578;2023-01-06T06:58:51;12.40;;;6.50;;
3543;SDS011;1786;52.870;9.578;2023-01-06T07:01:18;9.10;;;5.87;;
3543;SDS011;1786;52.870;9.578;2023-01-06T07:03:47;7.30;;;6.37;;
3543;SDS011;1786;52.870;9.578;2023-01-06T07:06:18;9.87;;;7.13;;
3543;SDS011;1786;52.870;9.578;2023-01-06T07:08:46;6.13;;;5.63;;
3543;SDS011;1786;52.870;9.578;2023-01-06T07:11:14;6.33;;;5.40;;
3543;SDS011;1786;52.870;9.578;2023-01-06T07:13:40;8.80;;;4.87;;
3543;SDS011;1786;52.870;9.578;2023-01-06T07:16:07;8.00;;;4.70;;
3543;SDS011;1786;52.870;9.578;2023-01-06T07:18:35;7.03;;;5.03;;
3543;SDS011;1786;52.870;9.578;2023-01-06T07:21:02;7.60;;;4.53;;
3543;SDS011;1786;52.870;9.578;2023-01-06T07:23:29;5.23;;;3.30;;
3543;SDS011;1786;52.870;9.578;2023-01-06T07:25:56;6.50;;;3.90;;
3543;SDS011;1786;52.870;9.578;2023-01-06T07:28:24;4.97;;;3.33;;
3543;SDS011;1786;52.870;9.578;2023-01-06T07:30:52;8.23;;;3.10;;
3543;SDS011;1786;52.870;9.578;2023-01-06T07:33:19;2.97;;;2.77;;
3543;SDS011;1786;52.870;9.578;2023-01-06T07:35:46;4.00;;;3.33;;
3543;SDS011;1786;52.870;9.578;2023-01-06T07:38:18;3.10;;;2.90;;
3543;SDS011;1786;52.870;9.578;2023-01-06T07:40:45;7.03;;;2.73;;
3543;SDS011;1786;52.870;9.578;2023-01-06T07:43:12;4.17;;;2.60;;
3543;SDS011;1786;52.870;9.578;2023-01-06T07:45:42;4.90;;;2.17;;
3543;SDS011;1786;52.870;9.578;2023-01-06T07:48:11;6.63;;;1.63;;
3543;SDS011;1786;52.870;9.578;2023-01-06T07:50:38;5.23;;;1.50;;
3543;SDS011;1786;52.870;9.578;2023-01-06T07:53:05;2.23;;;2.00;;
3543;SDS011;1786;52.870;9.578;2023-01-06T07:55:31;1.70;;;1.60;;
3543;SDS011;1786;52.870;9.578;2023-01-06T07:57:58;4.67;;;1.80;;
3543;SDS011;1786;52.870;9.578;2023-01-06T08:00:30;3.03;;;1.50;;
3543;SDS011;1786;52.870;9.578;2023-01-06T08:02:57;6.47;;;1.50;;
3543;SDS011;1786;52.870;9.578;2023-01-06T08:05:27;5.83;;;1.87;;
3543;SDS011;1786;52.870;9.578;2023-01-06T08:07:54;1.53;;;1.30;;
3543;SDS011;1786;52.870;9.578;2023-01-06T08:10:21;4.10;;;1.30;;
3543;SDS011;1786;52.870;9.578;2023-01-06T08:12:48;1.37;;;1.00;;
3543;SDS011;1786;52.870;9.578;2023-01-06T08:15:15;1.53;;;1.30;;
3543;SDS011;1786;52.870;9.578;2023-01-06T08:17:42;2.40;;;1.10;;
3543;SDS011;1786;52.870;9.578;2023-01-06T08:20:09;1.53;;;1.07;;
3543;SDS011;1786;52.870;9.578;2023-01-06T08:22:36;7.13;;;1.43;;
3543;SDS011;1786;52.870;9.578;2023-01-06T08:25:03;1.00;;;1.00;;
3543;SDS011;1786;52.870;9.578;2023-01-06T08:27:31;3.30;;;1.20;;
3543;SDS011;1786;52.870;9.578;2023-01-06T08:29:57;1.43;;;1.20;;
3543;SDS011;1786;52.870;9.578;2023-01-06T08:32:24;2.80;;;1.43;;
3543;SDS011;1786;52.870;9.578;2023-01-06T08:34:50;2.30;;;1.67;;
3543;SDS011;1786;52.870;9.578;2023-01-06T08:37:17;2.97;;;1.40;;
3543;SDS011;1786;52.870;9.578;2023-01-06T08:39:44;2.43;;;1.60;;
3543;SDS011;1786;52.870;9.578;2023-01-06T08:42:12;3.83;;;1.40;;
3543;SDS011;1786;52.870;9.578;2023-01-06T08:44:39;2.10;;;1.73;;
3543;SDS011;1786;52.870;9.578;2023-01-06T08:47:05;4.00;;;1.37;;
3543;SDS011;1786;52.870;9.578;2023-01-06T08:49:32;5.40;;;1.40;;
3543;SDS011;1786;52.870;9.578;2023-01-06T08:51:59;6.30;;;1.40;;
3543;SDS011;1786;52.870;9.578;2023-01-06T08:54:27;1.40;;;1.40;;
3543;SDS011;1786;52.870;9.578;2023-01-06T08:56:55;4.43;;;1.60;;
3543;SDS011;1786;52.870;9.578;2023-01-06T08:59:22;2.00;;;1.90;;
3543;SDS011;1786;52.870;9.578;2023-01-06T09:01:48;1.40;;;1.33;;
3543;SDS011;1786;52.870;9.578;2023-01-06T09:04:16;9.23;;;3.33;;
3543;SDS011;1786;52.870;9.578;2023-01-06T09:06:43;2.70;;;1.70;;
3543;SDS011;1786;52.870;9.578;2023-01-06T09:09:10;8.73;;;1.80;;
3543;SDS011;1786;52.870;9.578;2023-01-06T09:11:39;3.27;;;1.80;;
3543;SDS011;1786;52.870;9.578;2023-01-06T09:14:10;3.83;;;1.90;;
3543;SDS011;1786;52.870;9.578;2023-01-06T09:16:57;2.40;;;1.73;;
3543;SDS011;1786;52.870;9.578;2023-01-06T09:19:24;2.00;;;1.90;;
3543;SDS011;1786;52.870;9.578;2023-01-06T09:21:51;2.83;;;1.87;;
3543;SDS011;1786;52.870;9.578;2023-01-06T09:24:18;3.93;;;2.27;;
3543;SDS011;1786;52.870;9.578;2023-01-06T09:26:45;8.93;;;2.37;;
3543;SDS011;1786;52.870;9.578;2023-01-06T09:29:13;2.53;;;2.33;;
3543;SDS011;1786;52.870;9.578;2023-01-06T09:31:40;2.30;;;2.20;;
3543;SDS011;1786;52.870;9.578;2023-01-06T09:34:07;7.40;;;2.37;;
3543;SDS011;1786;52.870;9.578;2023-01-06T09:36:35;2.70;;;2.50;;
3543;SDS011;1786;52.870;9.578;2023-01-06T09:39:01;5.23;;;2.57;;
3543;SDS011;1786;52.870;9.578;2023-01-06T09:41:39;5.00;;;3.93;;
3543;SDS011;1786;52.870;9.578;2023-01-06T09:47:00;2.93;;;2.83;;
3543;SDS011;1786;52.870;9.578;2023-01-06T09:49:41;4.73;;;3.47;;
3543;SDS011;1786;52.870;9.578;2023-01-06T09:52:18;3.77;;;3.47;;
3543;SDS011;1786;52.870;9.578;2023-01-06T09:55:19;3.63;;;3.00;;
3543;SDS011;1786;52.870;9.578;2023-01-06T09:57:57;3.40;;;3.17;;
3543;SDS011;1786;52.870;9.578;2023-01-06T10:03:22;2.70;;;2.50;;
3543;SDS011;1786;52.870;9.578;2023-01-06T10:06:03;3.00;;;2.90;;
3543;SDS011;1786;52.870;9.578;2023-01-06T10:14:03;3.30;;;3.20;;
3543;SDS011;1786;52.870;9.578;2023-01-06T10:16:57;3.27;;;3.13;;
3543;SDS011;1786;52.870;9.578;2023-01-06T10:19:44;3.90;;;3.70;;
3543;SDS011;1786;52.870;9.578;2023-01-06T10:25:21;4.03;;;3.60;;
3543;SDS011;1786;52.870;9.578;2023-01-06T10:28:03;5.33;;;3.30;;
3543;SDS011;1786;52.870;9.578;2023-01-06T10:30:46;3.43;;;3.23;;
3543;SDS011;1786;52.870;9.578;2023-01-06T10:33:25;3.13;;;2.93;;
3543;SDS011;1786;52.870;9.578;2023-01-06T10:36:09;3.40;;;3.17;;
3543;SDS011;1786;52.870;9.578;2023-01-06T10:38:42;2.90;;;2.80;;
3543;SDS011;1786;52.870;9.578;2023-01-06T10:41:19;4.60;;;3.10;;
3543;SDS011;1786;52.870;9.578;2023-01-06T10:43:47;2.47;;;2.47;;
3543;SDS011;1786;52.870;9.578;2023-01-06T10:46:14;2.90;;;2.80;;
3543;SDS011;1786;52.870;9.578;2023-01-06T10:48:41;5.10;;;3.33;;
3543;SDS011;1786;52.870;9.578;2023-01-06T10:54:10;3.00;;;2.80;;
3543;SDS011;1786;52.870;9.578;2023-01-06T10:56:42;3.40;;;3.30;;
3543;SDS011;1786;52.870;9.578;2023-01-06T10:59:13;2.60;;;2.60;;
3543;SDS011;1786;52.870;9.578;2023-01-06T11:01:53;3.23;;;3.13;;
3543;SDS011;1786;52.870;9.578;2023-01-06T11:04:22;4.00;;;3.80;;
3543;SDS011;1786;52.870;9.578;2023-01-06T11:07:01;4.37;;;4.17;;
3543;SDS011;1786;52.870;9.578;2023-01-06T11:09:35;4.00;;;3.87;;
3543;SDS011;1786;52.870;9.578;2023-01-06T11:12:10;4.03;;;3.90;;
3543;SDS011;1786;52.870;9.578;2023-01-06T11:14:57;4.00;;;3.80;;
3543;SDS011;1786;52.870;9.578;2023-01-06T11:17:26;5.00;;;4.00;;
3543;SDS011;1786;52.870;9.578;2023-01-06T11:20:06;3.70;;;3.50;;
3543;SDS011;1786;52.870;9.578;2023-01-06T11:22:53;2.23;;;2.23;;
3543;SDS011;1786;52.870;9.578;2023-01-06T11:27:46;1.90;;;1.87;;
3543;SDS011;1786;52.870;9.578;2023-01-06T11:30:25;1.70;;;1.60;;
3543;SDS011;1786;52.870;9.578;2023-01-06T11:32:53;4.23;;;2.07;;
3543;SDS011;1786;52.870;9.578;2023-01-06T11:35:21;1.67;;;1.57;;
3543;SDS011;1786;52.870;9.578;2023-01-06T11:37:55;1.47;;;1.47;;
3543;SDS011;1786;52.870;9.578;2023-01-06T11:40:28;2.93;;;2.63;;
3543;SDS011;1786;52.870;9.578;2023-01-06T11:42:58;2.37;;;2.17;;
3543;SDS011;1786;52.870;9.578;2023-01-06T11:48:00;3.40;;;3.10;;
3543;SDS011;1786;52.870;9.578;2023-01-06T11:50:28;3.13;;;2.10;;
3543;SDS011;1786;52.870;9.578;2023-01-06T11:52:58;1.43;;;1.43;;
3543;SDS011;1786;52.870;9.578;2023-01-06T11:55:27;1.00;;;1.00;;
3543;SDS011;1786;52.870;9.578;2023-01-06T11:58:03;1.77;;;1.70;;
3543;SDS011;1786;52.870;9.578;2023-01-06T12:03:15;1.03;;;0.90;;
3543;SDS011;1786;52.870;9.578;2023-01-06T12:05:59;2.73;;;0.90;;
3543;SDS011;1786;52.870;9.578;2023-01-06T12:14:17;2.60;;;1.10;;
3543;SDS011;1786;52.870;9.578;2023-01-06T12:16:56;1.13;;;1.10;;
3543;SDS011;1786;52.870;9.578;2023-01-06T12:19:36;3.40;;;1.20;;
3543;SDS011;1786;52.870;9.578;2023-01-06T12:24:56;1.20;;;1.20;;
3543;SDS011;1786;52.870;9.578;2023-01-06T12:27:34;0.90;;;0.90;;
3543;SDS011;1786;52.870;9.578;2023-01-06T12:30:12;1.30;;;1.20;;
3543;SDS011;1786;52.870;9.578;2023-01-06T12:32:44;0.93;;;0.93;;
3543;SDS011;1786;52.870;9.578;2023-01-06T12:35:16;1.00;;;1.00;;
3543;SDS011;1786;52.870;9.578;2023-01-06T12:37:47;1.27;;;1.00;;
3543;SDS011;1786;52.870;9.578;2023-01-06T12:40:32;1.10;;;1.10;;
3543;SDS011;1786;52.870;9.578;2023-01-06T12:43:13;0.80;;;0.80;;
3543;SDS011;1786;52.870;9.578;2023-01-06T12:45:55;4.30;;;1.00;;
3543;SDS011;1786;52.870;9.578;2023-01-06T12:48:40;1.83;;;1.10;;
3543;SDS011;1786;52.870;9.578;2023-01-06T12:51:17;1.13;;;0.70;;
3543;SDS011;1786;52.870;9.578;2023-01-06T13:02:35;1.10;;;1.00;;
3543;SDS011;1786;52.870;9.578;2023-01-06T13:05:30;3.67;;;1.20;;
3543;SDS011;1786;52.870;9.578;2023-01-06T13:16:13;5.33;;;0.90;;
3543;SDS011;1786;52.870;9.578;2023-01-06T13:18:52;3.03;;;1.30;;
3543;SDS011;1786;52.870;9.578;2023-01-06T13:21:39;1.90;;;0.90;;
3543;SDS011;1786;52.870;9.578;2023-01-06T13:24:20;3.90;;;1.27;;
3543;SDS011;1786;52.870;9.578;2023-01-06T13:27:13;1.77;;;1.20;;
3543;SDS011;1786;52.870;9.578;2023-01-06T13:30:01;0.83;;;0.70;;
3543;SDS011;1786;52.870;9.578;2023-01-06T13:35:46;2.43;;;1.17;;
3543;SDS011;1786;52.870;9.578;2023-01-06T13:41:18;1.73;;;1.03;;
3543;SDS011;1786;52.870;9.578;2023-01-06T13:43:49;6.30;;;0.90;;
3543;SDS011;1786;52.870;9.578;2023-01-06T13:46:19;2.20;;;0.80;;
3543;SDS011;1786;52.870;9.578;2023-01-06T13:48:51;7.87;;;1.30;;
3543;SDS011;1786;52.870;9.578;2023-01-06T13:51:22;3.10;;;0.90;;
3543;SDS011;1786;52.870;9.578;2023-01-06T13:53:52;2.80;;;1.00;;
3543;SDS011;1786;52.870;9.578;2023-01-06T13:58:46;2.43;;;0.90;;
3543;SDS011;1786;52.870;9.578;2023-01-06T14:03:45;0.83;;;0.83;;
3543;SDS011;1786;52.870;9.578;2023-01-06T14:08:47;5.10;;;1.43;;
3543;SDS011;1786;52.870;9.578;2023-01-06T14:11:21;2.90;;;1.37;;
3543;SDS011;1786;52.870;9.578;2023-01-06T14:13:53;1.97;;;0.80;;
3543;SDS011;1786;52.870;9.578;2023-01-06T14:16:36;1.73;;;0.90;;
3543;SDS011;1786;52.870;9.578;2023-01-06T14:19:07;5.67;;;1.57;;
3543;SDS011;1786;52.870;9.578;2023-01-06T14:21:40;2.37;;;0.90;;
3543;SDS011;1786;52.870;9.578;2023-01-06T14:24:17;5.53;;;0.90;;
3543;SDS011;1786;52.870;9.578;2023-01-06T14:26:53;2.33;;;1.10;;
3543;SDS011;1786;52.870;9.578;2023-01-06T14:32:09;4.00;;;1.30;;
3543;SDS011;1786;52.870;9.578;2023-01-06T14:34:43;3.27;;;1.53;;
3543;SDS011;1786;52.870;9.578;2023-01-06T14:37:18;7.77;;;1.10;;
3543;SDS011;1786;52.870;9.578;2023-01-06T14:39:50;3.30;;;1.60;;
3543;SDS011;1786;52.870;9.578;2023-01-06T14:42:33;0.90;;;0.90;;
3543;SDS011;1786;52.870;9.578;2023-01-06T14:45:06;3.63;;;1.67;;
3543;SDS011;1786;52.870;9.578;2023-01-06T14:47:39;6.90;;;1.67;;
3543;SDS011;1786;52.870;9.578;2023-01-06T14:50:16;6.03;;;1.13;;
3543;SDS011;1786;52.870;9.578;2023-01-06T14:53:28;6.07;;;1.67;;
3543;SDS011;1786;52.870;9.578;2023-01-06T14:55:57;4.83;;;1.60;;
3543;SDS011;1786;52.870;9.578;2023-01-06T14:58:30;7.13;;;2.20;;
3543;SDS011;1786;52.870;9.578;2023-01-06T15:00:58;6.90;;;1.90;;
3543;SDS011;1786;52.870;9.578;2023-01-06T15:03:26;2.23;;;1.30;;
3543;SDS011;1786;52.870;9.578;2023-01-06T15:08:47;8.87;;;1.50;;
3543;SDS011;1786;52.870;9.578;2023-01-06T15:11:25;5.13;;;1.57;;
3543;SDS011;1786;52.870;9.578;2023-01-06T15:13:55;3.53;;;1.20;;
3543;SDS011;1786;52.870;9.578;2023-01-06T15:16:28;5.53;;;1.70;;
3543;SDS011;1786;52.870;9.578;2023-01-06T15:18:59;6.30;;;2.10;;
3543;SDS011;1786;52.870;9.578;2023-01-06T15:21:27;7.57;;;1.47;;
3543;SDS011;1786;52.870;9.578;2023-01-06T15:23:54;1.13;;;1.13;;
3543;SDS011;1786;52.870;9.578;2023-01-06T15:26:27;5.37;;;1.47;;
3543;SDS011;1786;52.870;9.578;2023-01-06T15:31:22;7.87;;;2.70;;
3543;SDS011;1786;52.870;9.578;2023-01-06T15:33:49;7.63;;;2.10;;
3543;SDS011;1786;52.870;9.578;2023-01-06T15:36:18;3.73;;;1.33;;
3543;SDS011;1786;52.870;9.578;2023-01-06T15:38:47;2.10;;;1.47;;
3543;SDS011;1786;52.870;9.578;2023-01-06T15:41:15;3.30;;;1.60;;
3543;SDS011;1786;52.870;9.578;2023-01-06T15:43:58;8.03;;;2.13;;
3543;SDS011;1786;52.870;9.578;2023-01-06T15:46:26;3.50;;;1.43;;
3543;SDS011;1786;52.870;9.578;2023-01-06T15:49:04;10.37;;;3.27;;
3543;SDS011;1786;52.870;9.578;2023-01-06T15:51:31;2.53;;;1.73;;
3543;SDS011;1786;52.870;9.578;2023-01-06T15:53:58;3.00;;;2.20;;
3543;SDS011;1786;52.870;9.578;2023-01-06T15:56:26;4.20;;;2.17;;
3543;SDS011;1786;52.870;9.578;2023-01-06T15:58:55;4.70;;;2.17;;
3543;SDS011;1786;52.870;9.578;2023-01-06T16:01:24;5.73;;;2.30;;
3543;SDS011;1786;52.870;9.578;2023-01-06T16:03:52;6.83;;;2.67;;
3543;SDS011;1786;52.870;9.578;2023-01-06T16:06:24;6.60;;;2.30;;
3543;SDS011;1786;52.870;9.578;2023-01-06T16:08:53;2.70;;;2.50;;
3543;SDS011;1786;52.870;9.578;2023-01-06T16:11:55;8.33;;;2.33;;
3543;SDS011;1786;52.870;9.578;2023-01-06T16:14:25;6.43;;;2.43;;
3543;SDS011;1786;52.870;9.578;2023-01-06T16:17:28;3.97;;;1.50;;
3543;SDS011;1786;52.870;9.578;2023-01-06T16:20:05;4.77;;;1.63;;
3543;SDS011;1786;52.870;9.578;2023-01-06T16:22:47;2.77;;;1.90;;
3543;SDS011;1786;52.870;9.578;2023-01-06T16:25:26;4.60;;;1.57;;
3543;SDS011;1786;52.870;9.578;2023-01-06T16:27:56;4.13;;;1.37;;
3543;SDS011;1786;52.870;9.578;2023-01-06T16:30:32;1.43;;;0.90;;
3543;SDS011;1786;52.870;9.578;2023-01-06T16:32:59;2.97;;;1.20;;
3543;SDS011;1786;52.870;9.578;2023-01-06T16:35:27;5.83;;;1.67;;
3543;SDS011;1786;52.870;9.578;2023-01-06T16:37:55;2.40;;;1.37;;
3543;SDS011;1786;52.870;9.578;2023-01-06T16:40:22;14.93;;;1.70;;
3543;SDS011;1786;52.870;9.578;2023-01-06T16:42:59;2.57;;;1.27;;
3543;SDS011;1786;52.870;9.578;2023-01-06T16:45:27;7.10;;;2.20;;
3543;SDS011;1786;52.870;9.578;2023-01-06T16:48:00;6.80;;;2.10;;
3543;SDS011;1786;52.870;9.578;2023-01-06T16:50:31;4.50;;;1.97;;
3543;SDS011;1786;52.870;9.578;2023-01-06T16:53:00;2.70;;;1.20;;
3543;SDS011;1786;52.870;9.578;2023-01-06T16:55:28;4.40;;;1.50;;
3543;SDS011;1786;52.870;9.578;2023-01-06T16:57:54;1.93;;;1.67;;
3543;SDS011;1786;52.870;9.578;2023-01-06T17:00:23;4.60;;;2.10;;
3543;SDS011;1786;52.870;9.578;2023-01-06T17:02:50;4.17;;;1.90;;
3543;SDS011;1786;52.870;9.578;2023-01-06T17:07:47;4.03;;;1.43;;
3543;SDS011;1786;52.870;9.578;2023-01-06T17:10:16;3.83;;;1.90;;
3543;SDS011;1786;52.870;9.578;2023-01-06T17:12:52;6.10;;;1.63;;
3543;SDS011;1786;52.870;9.578;2023-01-06T17:15:39;6.97;;;2.00;;
3543;SDS011;1786;52.870;9.578;2023-01-06T17:18:20;3.60;;;1.63;;
3543;SDS011;1786;52.870;9.578;2023-01-06T17:20:48;3.90;;;1.90;;
3543;SDS011;1786;52.870;9.578;2023-01-06T17:23:17;5.63;;;2.03;;
3543;SDS011;1786;52.870;9.578;2023-01-06T17:25:44;2.87;;;1.80;;